createdAt,value
2022-07-27T00:00:33.477Z,41.10
2022-07-27T00:02:35.263Z,41.30
2022-07-27T00:04:37.050Z,41.10
2022-07-27T00:06:38.806Z,41.40
2022-07-27T00:08:40.599Z,41.60
2022-07-27T00:10:42.282Z,41.90
2022-07-27T00:12:43.957Z,41.80
2022-07-27T00:14:45.632Z,42.00
2022-07-27T00:16:47.414Z,42.00
2022-07-27T00:18:50.268Z,41.80
2022-07-27T00:20:52.000Z,41.80
2022-07-27T00:22:54.939Z,41.70
2022-07-27T00:24:57.037Z,42.60
2022-07-27T00:26:58.719Z,42.10
2022-07-27T00:29:00.468Z,42.30
2022-07-27T00:31:02.268Z,42.20
2022-07-27T00:33:05.931Z,42.20
2022-07-27T00:35:08.429Z,42.40
2022-07-27T00:37:10.108Z,42.60
2022-07-27T00:39:12.128Z,42.80
2022-07-27T00:41:14.024Z,42.80
2022-07-27T00:43:15.721Z,42.60
2022-07-27T00:45:17.513Z,43.60
2022-07-27T00:47:19.205Z,43.50
2022-07-27T00:49:21.226Z,42.90
2022-07-27T00:51:24.245Z,43.80
2022-07-27T00:53:26.282Z,43.30
2022-07-27T00:55:28.267Z,43.60
2022-07-27T00:57:30.028Z,43.70
2022-07-27T00:59:31.989Z,43.50
2022-07-27T01:01:34.071Z,43.60
2022-07-27T01:03:37.316Z,43.80
2022-07-27T01:05:43.432Z,43.90
2022-07-27T01:07:45.849Z,43.60
2022-07-27T01:09:56.556Z,43.60
2022-07-27T01:11:58.324Z,43.40
2022-07-27T01:14:00.070Z,43.50
2022-07-27T01:16:05.562Z,43.40
2022-07-27T01:18:11.783Z,43.70
2022-07-27T01:20:13.484Z,43.80
2022-07-27T01:22:15.260Z,43.80
2022-07-27T01:24:16.995Z,43.90
2022-07-27T01:26:18.679Z,44.20
2022-07-27T01:28:20.552Z,44.20
2022-07-27T01:30:30.072Z,44.30
2022-07-27T01:32:31.737Z,44.30
2022-07-27T01:34:34.097Z,44.40
2022-07-27T01:36:36.035Z,44.30
2022-07-27T01:38:37.685Z,44.40
2022-07-27T01:40:39.854Z,44.50
2022-07-27T01:42:41.865Z,44.40
2022-07-27T01:44:43.541Z,44.30
2022-07-27T01:46:45.476Z,44.20
2022-07-27T01:48:47.318Z,44.20
2022-07-27T01:50:50.946Z,44.80
2022-07-27T01:52:52.866Z,44.50
2022-07-27T01:54:54.552Z,44.50
2022-07-27T01:56:56.252Z,45.20
2022-07-27T01:58:58.954Z,44.60
2022-07-27T02:01:00.627Z,44.70
2022-07-27T02:03:03.685Z,44.60
2022-07-27T02:05:06.210Z,44.60
2022-07-27T02:07:08.230Z,44.60
2022-07-27T02:09:10.149Z,44.60
2022-07-27T02:11:30.704Z,44.80
2022-07-27T02:13:32.352Z,44.80
2022-07-27T02:15:43.102Z,44.80
2022-07-27T02:17:47.917Z,45.10
2022-07-27T02:19:49.613Z,45.30
2022-07-27T02:21:51.269Z,45.10
2022-07-27T02:23:52.975Z,45.40
2022-07-27T02:25:54.710Z,45.60
2022-07-27T02:27:56.452Z,45.40
2022-07-27T02:29:58.205Z,45.80
2022-07-27T02:31:59.900Z,45.70
2022-07-27T02:34:01.726Z,45.50
2022-07-27T02:36:03.821Z,45.60
2022-07-27T02:38:05.541Z,45.80
2022-07-27T02:40:07.758Z,45.60
2022-07-27T02:42:09.955Z,46.60
2022-07-27T02:44:14.470Z,45.90
2022-07-27T02:46:16.248Z,45.70
2022-07-27T02:48:18.030Z,45.80
2022-07-27T02:50:19.715Z,45.90
2022-07-27T02:52:21.397Z,46.20
2022-07-27T02:54:25.108Z,47.10
2022-07-27T02:56:27.177Z,46.70
2022-07-27T02:58:28.961Z,46.90
2022-07-27T03:00:30.691Z,46.80
2022-07-27T03:02:32.430Z,46.60
2022-07-27T03:04:34.199Z,46.70
2022-07-27T03:06:35.923Z,46.70
2022-07-27T03:08:37.906Z,47.10
2022-07-27T03:10:39.608Z,47.50
2022-07-27T03:12:41.271Z,47.40
2022-07-27T03:14:42.920Z,47.10
2022-07-27T03:16:44.596Z,47.00
2022-07-27T03:18:46.289Z,46.70
2022-07-27T03:20:47.969Z,46.80
2022-07-27T03:22:49.649Z,47.40
2022-07-27T03:24:51.297Z,47.40
2022-07-27T03:26:53.013Z,47.90
2022-07-27T03:28:54.700Z,48.20
2022-07-27T03:30:56.406Z,47.70
2022-07-27T03:32:58.238Z,47.70
2022-07-27T03:34:59.941Z,47.40
2022-07-27T03:37:01.610Z,47.30
2022-07-27T03:39:06.114Z,47.40
2022-07-27T03:41:08.177Z,47.30
2022-07-27T03:43:09.853Z,47.30
2022-07-27T03:45:11.876Z,47.50
2022-07-27T03:47:13.574Z,48.60
2022-07-27T03:49:15.525Z,48.10
2022-07-27T03:51:17.399Z,48.30
2022-07-27T03:53:21.332Z,48.50
2022-07-27T03:55:23.176Z,48.70
2022-07-27T03:57:25.620Z,48.70
2022-07-27T03:59:27.728Z,48.90
2022-07-27T04:01:29.523Z,49.10
2022-07-27T04:03:31.289Z,49.10
2022-07-27T04:05:33.041Z,49.50
2022-07-27T04:07:34.913Z,49.70
2022-07-27T04:09:37.544Z,49.50
2022-07-27T04:11:43.681Z,49.50
2022-07-27T04:13:53.109Z,50.40
2022-07-27T04:15:57.804Z,49.70
2022-07-27T04:17:59.550Z,49.70
2022-07-27T04:20:01.287Z,49.60
2022-07-27T04:22:03.397Z,49.50
2022-07-27T04:24:06.965Z,49.50
2022-07-27T04:26:08.644Z,49.60
2022-07-27T04:28:10.737Z,49.90
2022-07-27T04:30:12.857Z,50.00
2022-07-27T04:32:14.539Z,49.90
2022-07-27T04:34:16.312Z,50.20
2022-07-27T04:36:18.104Z,50.30
2022-07-27T04:38:19.924Z,50.20
2022-07-27T04:40:21.729Z,50.10
2022-07-27T04:42:23.510Z,50.10
2022-07-27T04:44:25.181Z,50.30
2022-07-27T04:46:29.439Z,50.80
2022-07-27T04:48:35.674Z,50.70
2022-07-27T04:50:41.632Z,50.50
2022-07-27T04:52:43.295Z,49.80
2022-07-27T04:54:45.049Z,49.40
2022-07-27T04:56:46.712Z,49.20
2022-07-27T04:58:48.493Z,49.30
2022-07-27T05:00:50.401Z,48.30
2022-07-27T05:02:52.110Z,48.10
2022-07-27T05:04:54.162Z,47.90
2022-07-27T05:06:55.805Z,47.60
2022-07-27T05:08:57.536Z,47.30
2022-07-27T05:10:59.286Z,47.20
2022-07-27T05:13:01.264Z,47.10
2022-07-27T05:15:04.328Z,46.70
2022-07-27T05:17:06.288Z,46.70
2022-07-27T05:19:08.280Z,46.70
2022-07-27T05:21:10.070Z,46.50
2022-07-27T05:23:11.936Z,46.20
2022-07-27T05:25:13.699Z,46.00
2022-07-27T05:27:15.383Z,45.90
2022-07-27T05:29:17.126Z,45.70
2022-07-27T05:31:18.871Z,45.70
2022-07-27T05:33:20.593Z,45.50
2022-07-27T05:35:22.704Z,45.80
2022-07-27T05:37:24.379Z,45.70
2022-07-27T05:39:26.115Z,45.50
2022-07-27T05:41:27.859Z,45.50
2022-07-27T05:43:29.519Z,45.10
2022-07-27T05:45:31.323Z,45.00
2022-07-27T05:47:32.996Z,44.90
2022-07-27T05:49:34.782Z,45.00
2022-07-27T05:51:36.443Z,45.10
2022-07-27T05:53:38.410Z,45.20
2022-07-27T05:55:57.827Z,45.30
2022-07-27T05:58:01.218Z,45.20
2022-07-27T06:00:04.025Z,45.10
2022-07-27T06:02:05.779Z,45.00
2022-07-27T06:04:07.463Z,45.00
2022-07-27T06:06:27.817Z,45.00
2022-07-27T06:08:29.671Z,45.00
2022-07-27T06:10:33.745Z,45.00
2022-07-27T06:12:39.788Z,45.00
2022-07-27T06:14:41.449Z,45.60
2022-07-27T06:16:43.231Z,44.90
2022-07-27T06:18:44.915Z,45.00
2022-07-27T06:20:46.798Z,45.00
2022-07-27T06:22:54.368Z,44.90
2022-07-27T06:24:56.185Z,44.90
2022-07-27T06:26:57.859Z,44.70
2022-07-27T06:29:01.269Z,44.90
2022-07-27T06:31:03.083Z,45.00
2022-07-27T06:33:05.046Z,44.90
2022-07-27T06:35:08.657Z,44.90
2022-07-27T06:37:10.315Z,44.90
2022-07-27T06:39:13.467Z,44.90
2022-07-27T06:41:15.716Z,44.90
2022-07-27T06:43:17.378Z,45.00
2022-07-27T06:45:19.068Z,45.00
2022-07-27T06:47:25.934Z,45.00
2022-07-27T06:49:30.303Z,45.00
2022-07-27T06:51:32.659Z,45.00
2022-07-27T06:53:36.510Z,44.90
2022-07-27T06:55:39.057Z,44.90
2022-07-27T06:57:42.065Z,44.90
2022-07-27T06:59:44.016Z,45.00
2022-07-27T07:01:48.762Z,44.90
2022-07-27T07:03:51.151Z,44.90
2022-07-27T07:05:52.878Z,44.80
2022-07-27T07:07:55.256Z,44.90
2022-07-27T07:09:56.997Z,44.80
2022-07-27T07:11:58.649Z,44.90
2022-07-27T07:14:00.334Z,44.80
2022-07-27T07:16:02.086Z,44.70
2022-07-27T07:18:04.854Z,44.70
2022-07-27T07:20:08.334Z,44.80
2022-07-27T07:22:10.028Z,44.80
2022-07-27T07:24:11.968Z,44.80
2022-07-27T07:26:14.095Z,44.80
2022-07-27T07:28:15.865Z,44.80
2022-07-27T07:30:17.876Z,44.80
2022-07-27T07:32:27.761Z,44.80
2022-07-27T07:34:33.264Z,44.80
2022-07-27T07:36:34.961Z,44.70
2022-07-27T07:38:36.645Z,44.80
2022-07-27T07:40:44.409Z,44.70
2022-07-27T07:42:54.764Z,44.70
2022-07-27T07:44:56.435Z,44.70
2022-07-27T07:46:58.204Z,44.70
2022-07-27T07:49:00.392Z,45.40
2022-07-27T07:51:02.190Z,44.70
2022-07-27T07:53:04.151Z,44.80
2022-07-27T07:55:06.332Z,44.70
2022-07-27T07:57:08.401Z,44.60
2022-07-27T07:59:10.452Z,44.70
2022-07-27T08:01:12.294Z,44.70
2022-07-27T08:03:14.527Z,44.70
2022-07-27T08:05:17.167Z,44.70
2022-07-27T08:07:18.908Z,44.70
2022-07-27T08:09:21.731Z,44.70
2022-07-27T08:11:23.556Z,44.70
2022-07-27T08:13:25.301Z,44.70
2022-07-27T08:15:29.890Z,44.60
2022-07-27T08:17:37.938Z,44.60
2022-07-27T08:19:40.395Z,44.60
2022-07-27T08:21:42.200Z,44.70
2022-07-27T08:23:43.972Z,44.60
2022-07-27T08:25:46.266Z,44.80
2022-07-27T08:27:47.973Z,44.80
2022-07-27T08:29:52.009Z,44.80
2022-07-27T08:31:53.949Z,44.70
2022-07-27T08:33:57.938Z,44.70
2022-07-27T08:35:59.650Z,44.70
2022-07-27T08:38:02.680Z,44.70
2022-07-27T08:42:26.657Z,44.70
2022-07-27T08:44:29.723Z,44.60
2022-07-27T08:46:32.962Z,44.60
2022-07-27T08:48:34.964Z,44.60
2022-07-27T08:50:37.055Z,44.50
2022-07-27T08:52:39.334Z,44.50
2022-07-27T08:54:41.558Z,44.50
2022-07-27T08:56:45.951Z,44.50
2022-07-27T08:58:47.882Z,44.50
2022-07-27T09:00:50.204Z,44.40
2022-07-27T09:02:54.467Z,44.30
2022-07-27T09:04:57.730Z,44.20
2022-07-27T09:06:59.512Z,44.30
2022-07-27T09:09:01.263Z,44.30
2022-07-27T09:11:14.323Z,44.40
2022-07-27T09:13:23.477Z,45.00
2022-07-27T09:15:34.291Z,44.30
2022-07-27T09:17:48.577Z,44.20
2022-07-27T09:20:00.559Z,44.20
2022-07-27T09:22:02.147Z,44.20
2022-07-27T09:24:36.837Z,44.10
2022-07-27T09:26:36.399Z,44.00
2022-07-27T09:28:38.161Z,43.90
2022-07-27T09:30:43.715Z,44.00
2022-07-27T09:33:04.281Z,43.90
2022-07-27T09:35:21.545Z,43.90
2022-07-27T09:37:25.158Z,43.90
2022-07-27T09:39:28.080Z,44.00
2022-07-27T09:41:40.333Z,44.00
2022-07-27T09:46:16.385Z,43.90
2022-07-27T09:48:21.461Z,43.90
2022-07-27T09:50:24.005Z,44.00
2022-07-27T09:52:28.154Z,43.90
2022-07-27T09:54:44.299Z,44.00
2022-07-27T09:56:46.095Z,44.10
2022-07-27T09:58:50.035Z,44.00
2022-07-27T10:00:57.981Z,43.80
2022-07-27T10:02:59.782Z,43.80
2022-07-27T10:05:01.670Z,43.80
2022-07-27T10:07:06.295Z,43.80
2022-07-27T10:09:11.121Z,43.80
2022-07-27T10:11:14.526Z,43.80
2022-07-27T10:13:16.232Z,43.80
2022-07-27T10:15:17.969Z,43.80
2022-07-27T10:17:19.753Z,43.80
2022-07-27T10:19:30.545Z,43.80
2022-07-27T10:21:33.718Z,43.80
2022-07-27T10:23:38.135Z,43.80
2022-07-27T10:25:44.008Z,43.80
2022-07-27T10:28:07.719Z,43.80
2022-07-27T10:30:09.824Z,43.70
2022-07-27T10:32:11.583Z,43.70
2022-07-27T10:34:13.691Z,43.50
2022-07-27T10:36:17.170Z,43.40
2022-07-27T10:38:18.910Z,43.40
2022-07-27T10:40:36.086Z,43.30
2022-07-27T10:42:37.844Z,43.30
2022-07-27T10:44:59.204Z,43.50
2022-07-27T10:47:03.365Z,43.50
2022-07-27T10:49:28.524Z,43.40
2022-07-27T10:51:36.464Z,43.30
2022-07-27T10:54:10.450Z,43.30
2022-07-27T10:56:03.980Z,43.30
2022-07-27T10:58:11.142Z,43.30
2022-07-27T11:00:19.483Z,43.40
2022-07-27T11:02:41.117Z,43.20
2022-07-27T11:04:49.608Z,43.10
2022-07-27T11:07:23.707Z,43.00
2022-07-27T11:10:02.455Z,42.80
2022-07-27T11:11:40.539Z,42.80
2022-07-27T11:13:42.291Z,42.70
2022-07-27T11:15:59.853Z,42.40
2022-07-27T11:18:06.609Z,42.40
2022-07-27T11:20:09.079Z,42.40
2022-07-27T11:22:28.282Z,42.30
2022-07-27T11:24:30.700Z,42.20
2022-07-27T11:26:40.092Z,42.20
2022-07-27T11:28:42.454Z,42.10
2022-07-27T11:30:44.288Z,42.00
2022-07-27T11:32:46.067Z,41.90
2022-07-27T11:34:48.544Z,41.90
2022-07-27T11:36:50.369Z,41.90
2022-07-27T11:38:55.180Z,42.00
2022-07-27T11:41:07.209Z,41.80
2022-07-27T11:43:33.820Z,41.70
2022-07-27T11:45:39.706Z,41.30
2022-07-27T11:47:41.420Z,41.30
2022-07-27T11:49:43.261Z,41.20
2022-07-27T11:51:49.969Z,41.20
2022-07-27T11:54:06.238Z,41.20
2022-07-27T11:56:08.245Z,41.00
2022-07-27T11:58:10.712Z,41.10
2022-07-27T12:00:13.056Z,41.00
2022-07-27T12:02:20.204Z,41.80
2022-07-27T12:04:25.304Z,41.10
2022-07-27T12:06:27.132Z,41.20
2022-07-27T12:08:30.119Z,41.10
2022-07-27T12:10:37.270Z,40.90
2022-07-27T12:12:39.348Z,40.90
2022-07-27T12:14:50.762Z,40.90
2022-07-27T12:16:54.247Z,40.70
2022-07-27T12:18:56.028Z,40.40
2022-07-27T12:20:57.694Z,40.20
2022-07-27T12:23:04.609Z,40.10
2022-07-27T12:25:23.999Z,40.10
2022-07-27T12:27:26.649Z,40.20
2022-07-27T12:29:28.372Z,40.20
2022-07-27T12:31:30.147Z,40.20
2022-07-27T12:33:35.119Z,40.20
2022-07-27T12:35:47.184Z,40.30
2022-07-27T12:37:56.381Z,40.30
2022-07-27T12:39:59.598Z,40.40
2022-07-27T12:42:07.787Z,40.50
2022-07-27T12:44:12.071Z,40.40
2022-07-27T12:46:15.591Z,40.30
2022-07-27T12:48:20.408Z,40.20
2022-07-27T12:50:28.868Z,40.10
2022-07-27T12:52:31.080Z,39.90
2022-07-27T12:54:32.858Z,40.20
2022-07-27T12:56:35.283Z,40.20
2022-07-27T12:58:37.656Z,40.30
2022-07-27T13:00:39.807Z,40.30
2022-07-27T13:02:42.680Z,40.10
2022-07-27T13:04:44.614Z,42.90
2022-07-27T13:06:47.598Z,41.10
2022-07-27T13:08:49.709Z,40.90
2022-07-27T13:10:54.851Z,40.70
2022-07-27T13:12:58.114Z,40.60
2022-07-27T13:14:59.976Z,40.40
2022-07-27T13:17:01.710Z,40.20
2022-07-27T13:19:03.455Z,40.40
2022-07-27T13:21:05.205Z,40.40
2022-07-27T13:23:08.829Z,40.10
2022-07-27T13:25:16.017Z,40.20
2022-07-27T13:27:18.405Z,40.20
2022-07-27T13:29:20.146Z,40.00
2022-07-27T13:31:21.866Z,39.80
2022-07-27T13:33:24.530Z,39.10
2022-07-27T13:35:26.374Z,39.20
2022-07-27T13:37:28.117Z,39.60
2022-07-27T13:39:30.288Z,39.80
2022-07-27T13:41:37.155Z,40.00
2022-07-27T13:43:38.893Z,40.30
2022-07-27T13:45:43.255Z,40.50
2022-07-27T13:47:45.299Z,40.50
2022-07-27T13:49:47.277Z,40.30
2022-07-27T13:51:49.031Z,40.30
2022-07-27T13:53:50.768Z,40.30
2022-07-27T13:55:52.518Z,40.30
2022-07-27T13:57:54.280Z,40.30
2022-07-27T13:59:57.526Z,40.40
2022-07-27T14:01:59.302Z,41.00
2022-07-27T14:04:05.497Z,40.40
2022-07-27T14:06:08.542Z,40.40
2022-07-27T14:08:10.859Z,40.40
2022-07-27T14:10:31.490Z,40.40
2022-07-27T14:12:33.472Z,40.30
2022-07-27T14:14:35.125Z,40.10
2022-07-27T14:16:37.045Z,40.20
2022-07-27T14:18:39.619Z,40.20
2022-07-27T14:20:41.788Z,40.20
2022-07-27T14:22:43.475Z,40.20
2022-07-27T14:24:45.213Z,40.30
2022-07-27T14:26:47.272Z,40.20
2022-07-27T14:28:48.964Z,40.20
2022-07-27T14:30:51.789Z,40.30
2022-07-27T14:32:53.475Z,40.20
2022-07-27T14:34:55.183Z,40.10
2022-07-27T14:36:56.893Z,40.10
2022-07-27T14:38:58.553Z,40.00
2022-07-27T14:41:03.345Z,40.10
2022-07-27T14:43:05.264Z,40.10
2022-07-27T14:45:07.700Z,40.10
2022-07-27T14:47:09.449Z,40.10
2022-07-27T14:49:11.232Z,40.00
2022-07-27T14:51:13.036Z,39.80
2022-07-27T14:53:14.745Z,39.80
2022-07-27T14:55:16.697Z,39.90
2022-07-27T14:57:18.540Z,39.80
2022-07-27T14:59:20.230Z,39.90
2022-07-27T15:01:21.997Z,39.80
2022-07-27T15:03:23.792Z,39.80
2022-07-27T15:05:25.618Z,39.80
2022-07-27T15:07:27.298Z,39.80
2022-07-27T15:09:30.371Z,39.80
2022-07-27T15:11:32.958Z,39.80
2022-07-27T15:13:34.617Z,39.90
2022-07-27T15:15:36.265Z,39.90
2022-07-27T15:17:39.584Z,39.80
2022-07-27T15:19:41.255Z,39.70
2022-07-27T15:21:43.351Z,39.80
2022-07-27T15:23:45.099Z,40.50
2022-07-27T15:25:46.781Z,39.80
2022-07-27T15:27:49.489Z,39.80
2022-07-27T15:29:51.225Z,39.80
2022-07-27T15:31:53.057Z,39.80
2022-07-27T15:33:54.809Z,39.80
2022-07-27T15:35:56.705Z,39.80
2022-07-27T15:37:58.363Z,39.70
2022-07-27T15:40:20.262Z,39.60
2022-07-27T15:42:22.080Z,39.60
2022-07-27T15:44:23.835Z,39.70
2022-07-27T15:46:27.420Z,39.50
2022-07-27T15:48:29.953Z,39.50
2022-07-27T15:50:31.707Z,39.50
2022-07-27T15:52:33.837Z,39.60
2022-07-27T15:54:42.162Z,39.80
2022-07-27T15:56:47.620Z,40.30
2022-07-27T15:58:50.149Z,40.60
2022-07-27T16:00:55.966Z,40.40
2022-07-27T16:02:59.252Z,40.20
2022-07-27T16:05:01.516Z,40.20
2022-07-27T16:07:03.227Z,40.30
2022-07-27T16:09:05.050Z,40.60
2022-07-27T16:11:06.890Z,40.60
2022-07-27T16:13:10.290Z,40.50
2022-07-27T16:15:12.037Z,41.10
2022-07-27T16:17:15.488Z,40.30
2022-07-27T16:19:17.375Z,40.30
2022-07-27T16:21:20.806Z,40.20
2022-07-27T16:23:23.693Z,40.20
2022-07-27T16:25:40.315Z,40.00
2022-07-27T16:27:47.047Z,39.20
2022-07-27T16:29:48.828Z,39.40
2022-07-27T16:31:51.095Z,38.90
2022-07-27T16:33:54.819Z,38.20
2022-07-27T16:35:57.160Z,37.60
2022-07-27T16:37:58.868Z,37.70
2022-07-27T16:40:00.535Z,37.30
2022-07-27T16:42:02.420Z,37.50
2022-07-27T16:44:04.443Z,37.30
2022-07-27T16:46:10.104Z,37.00
2022-07-27T16:48:12.812Z,36.90
2022-07-27T16:50:15.017Z,36.70
2022-07-27T16:52:16.680Z,36.80
2022-07-27T16:54:18.380Z,36.80
2022-07-27T16:56:20.075Z,36.70
2022-07-27T16:58:21.723Z,36.60
2022-07-27T17:00:23.484Z,36.60
2022-07-27T17:02:29.849Z,36.40
2022-07-27T17:04:31.542Z,36.50
2022-07-27T17:06:35.085Z,36.60
2022-07-27T17:08:36.832Z,36.60
2022-07-27T17:10:41.652Z,36.30
2022-07-27T17:12:43.354Z,36.30
2022-07-27T17:14:50.172Z,36.20
2022-07-27T17:16:52.527Z,36.10
2022-07-27T17:18:54.791Z,36.10
2022-07-27T17:20:56.550Z,35.90
2022-07-27T17:22:58.236Z,36.20
2022-07-27T17:24:59.984Z,36.20
2022-07-27T17:27:01.908Z,36.00
2022-07-27T17:29:04.718Z,36.10
2022-07-27T17:31:09.255Z,35.60
2022-07-27T17:33:11.253Z,35.70
2022-07-27T17:35:12.948Z,36.00
2022-07-27T17:37:15.655Z,35.90
2022-07-27T17:39:17.728Z,35.70
2022-07-27T17:41:24.807Z,35.70
2022-07-27T17:43:27.002Z,35.50
2022-07-27T17:45:28.723Z,35.60
2022-07-27T17:47:30.393Z,35.50
2022-07-27T17:49:32.244Z,35.50
2022-07-27T17:51:35.888Z,35.50
2022-07-27T17:53:38.194Z,35.50
2022-07-27T17:55:40.078Z,35.60
2022-07-27T17:57:41.874Z,35.70
2022-07-27T17:59:43.803Z,35.50
2022-07-27T18:01:47.899Z,35.80
2022-07-27T18:03:50.362Z,35.60
2022-07-27T18:05:52.573Z,36.20
2022-07-27T18:07:54.416Z,35.40
2022-07-27T18:09:58.182Z,35.30
2022-07-27T18:12:00.018Z,35.10
2022-07-27T18:14:01.696Z,35.10
2022-07-27T18:16:03.635Z,35.20
2022-07-27T18:18:05.457Z,35.20
2022-07-27T18:20:09.652Z,35.30
2022-07-27T18:22:11.366Z,35.20
2022-07-27T18:24:13.493Z,35.30
2022-07-27T18:26:15.179Z,35.40
2022-07-27T18:28:17.394Z,35.40
2022-07-27T18:30:19.096Z,35.40
2022-07-27T18:32:20.770Z,35.40
2022-07-27T18:34:22.439Z,35.50
2022-07-27T18:36:25.360Z,35.40
2022-07-27T18:38:27.136Z,35.80
2022-07-27T18:40:28.796Z,35.80
2022-07-27T18:42:30.705Z,35.90
2022-07-27T18:44:38.618Z,36.50
2022-07-27T18:46:41.639Z,36.00
2022-07-27T18:48:44.377Z,36.80
2022-07-27T18:50:46.145Z,35.10
2022-07-27T18:52:48.094Z,35.20
2022-07-27T18:54:49.836Z,35.50
2022-07-27T18:56:52.030Z,35.10
2022-07-27T18:58:54.722Z,35.20
2022-07-27T19:00:56.761Z,35.40
2022-07-27T19:02:58.632Z,35.20
2022-07-27T19:05:00.471Z,35.20
2022-07-27T19:07:03.288Z,35.10
2022-07-27T19:09:07.989Z,35.50
2022-07-27T19:11:10.298Z,35.50
2022-07-27T19:13:13.150Z,35.80
2022-07-27T19:15:14.917Z,35.40
2022-07-27T19:17:16.710Z,35.70
2022-07-27T19:19:22.879Z,35.70
2022-07-27T19:21:25.759Z,35.50
2022-07-27T19:23:27.441Z,35.80
2022-07-27T19:25:30.516Z,35.70
2022-07-27T19:27:32.230Z,35.80
2022-07-27T19:29:40.950Z,35.80
2022-07-27T19:31:42.729Z,35.80
2022-07-27T19:33:44.480Z,35.80
2022-07-27T19:35:46.348Z,36.00
2022-07-27T19:37:48.182Z,35.70
2022-07-27T19:39:57.791Z,35.70
2022-07-27T19:42:04.490Z,36.10
2022-07-27T19:44:06.752Z,36.10
2022-07-27T19:46:08.585Z,36.20
2022-07-27T19:48:10.477Z,36.20
2022-07-27T19:50:12.184Z,37.00
2022-07-27T19:52:13.975Z,36.30
2022-07-27T19:54:15.668Z,36.30
2022-07-27T19:56:17.630Z,36.20
2022-07-27T19:58:19.421Z,36.90
2022-07-27T20:00:21.490Z,36.90
2022-07-27T20:02:24.953Z,36.60
2022-07-27T20:04:26.740Z,36.40
2022-07-27T20:06:28.439Z,37.30
2022-07-27T20:08:30.182Z,36.70
2022-07-27T20:10:31.977Z,36.90
2022-07-27T20:12:33.687Z,37.10
2022-07-27T20:14:36.245Z,37.00
2022-07-27T20:16:38.793Z,37.20
2022-07-27T20:18:40.590Z,37.10
2022-07-27T20:20:42.265Z,37.10
2022-07-27T20:22:44.001Z,37.00
2022-07-27T20:24:45.693Z,37.10
2022-07-27T20:26:49.279Z,37.10
2022-07-27T20:28:51.104Z,37.30
2022-07-27T20:30:52.907Z,37.30
2022-07-27T20:32:54.629Z,37.40
2022-07-27T20:34:56.299Z,37.40
2022-07-27T20:36:59.337Z,37.50
2022-07-27T20:39:01.096Z,37.50
2022-07-27T20:41:02.777Z,37.50
2022-07-27T20:43:04.469Z,37.60
2022-07-27T20:45:07.675Z,37.80
2022-07-27T20:47:09.463Z,37.70
2022-07-27T20:49:11.520Z,37.80
2022-07-27T20:51:13.620Z,37.90
2022-07-27T20:53:15.475Z,37.80
2022-07-27T20:55:17.167Z,37.90
2022-07-27T20:57:18.860Z,38.00
2022-07-27T20:59:20.657Z,38.00
2022-07-27T21:01:22.572Z,38.30
2022-07-27T21:03:24.989Z,38.10
2022-07-27T21:05:28.543Z,38.10
2022-07-27T21:07:30.427Z,38.20
2022-07-27T21:09:32.186Z,38.20
2022-07-27T21:11:33.913Z,38.50
2022-07-27T21:13:35.753Z,38.50
2022-07-27T21:15:37.431Z,38.50
2022-07-27T21:17:39.259Z,38.60
2022-07-27T21:19:41.033Z,38.30
2022-07-27T21:21:42.695Z,38.70
2022-07-27T21:24:02.953Z,38.80
2022-07-27T21:26:06.096Z,38.80
2022-07-27T21:28:08.799Z,39.00
2022-07-27T21:30:11.770Z,39.10
2022-07-27T21:32:13.459Z,39.00
2022-07-27T21:34:16.695Z,38.90
2022-07-27T21:36:18.576Z,39.00
2022-07-27T21:38:20.276Z,39.10
2022-07-27T21:40:21.964Z,39.00
2022-07-27T21:42:23.643Z,39.20
2022-07-27T21:44:25.304Z,39.00
2022-07-27T21:46:27.272Z,39.00
2022-07-27T21:48:28.968Z,39.20
2022-07-27T21:50:30.637Z,39.20
2022-07-27T21:52:32.333Z,39.20
2022-07-27T21:54:34.050Z,39.10
2022-07-27T21:56:41.804Z,39.40
2022-07-27T21:58:45.796Z,39.30
2022-07-27T22:00:47.558Z,39.20
2022-07-27T22:02:50.098Z,39.10
2022-07-27T22:04:51.743Z,39.10
2022-07-27T22:06:53.785Z,39.00
2022-07-27T22:08:55.513Z,39.00
2022-07-27T22:10:57.417Z,39.10
2022-07-27T22:12:59.216Z,39.30
2022-07-27T22:15:00.951Z,39.40
2022-07-27T22:17:03.566Z,39.20
2022-07-27T22:19:05.387Z,39.10
2022-07-27T22:21:07.126Z,39.10
2022-07-27T22:23:09.107Z,39.00
2022-07-27T22:25:10.810Z,39.10
2022-07-27T22:27:12.464Z,39.00
2022-07-27T22:29:14.150Z,39.30
2022-07-27T22:31:22.150Z,39.40
2022-07-27T22:33:24.909Z,39.30
2022-07-27T22:35:26.767Z,39.30
2022-07-27T22:37:28.467Z,39.40
2022-07-27T22:39:30.251Z,39.60
2022-07-27T22:41:32.169Z,39.60
2022-07-27T22:43:33.896Z,39.60
2022-07-27T22:45:35.709Z,39.70
2022-07-27T22:47:38.099Z,39.70
2022-07-27T22:49:40.112Z,39.70
2022-07-27T22:51:49.429Z,39.60
2022-07-27T22:53:54.491Z,39.60
2022-07-27T22:55:56.249Z,39.70
2022-07-27T22:57:58.010Z,39.70
2022-07-27T22:59:59.672Z,39.60
2022-07-27T23:02:04.450Z,39.30
2022-07-27T23:04:06.332Z,39.20
2022-07-27T23:06:08.032Z,39.30
2022-07-27T23:08:09.986Z,39.30
2022-07-27T23:10:31.778Z,39.40
2022-07-27T23:12:33.517Z,39.30
2022-07-27T23:14:35.194Z,39.40
2022-07-27T23:16:37.118Z,39.50
2022-07-27T23:18:38.836Z,39.70
2022-07-27T23:20:40.655Z,39.60
2022-07-27T23:22:42.457Z,39.30
2022-07-27T23:24:51.253Z,39.20
2022-07-27T23:26:53.450Z,39.70
2022-07-27T23:28:55.515Z,39.50
2022-07-27T23:30:57.197Z,39.70
2022-07-27T23:32:58.941Z,39.80
2022-07-27T23:35:00.632Z,39.70
2022-07-27T23:37:02.344Z,39.90
2022-07-27T23:39:04.104Z,39.90
2022-07-27T23:41:05.801Z,39.60
2022-07-27T23:43:07.460Z,39.70
2022-07-27T23:45:09.517Z,39.80
2022-07-27T23:47:13.243Z,40.10
2022-07-27T23:49:15.135Z,40.20
2022-07-27T23:51:21.091Z,40.10
2022-07-27T23:53:23.802Z,39.90
2022-07-27T23:55:25.612Z,39.80
2022-07-27T23:57:29.715Z,39.70
2022-07-27T23:59:31.480Z,39.60
